Time;durP1;ratioP1;P1;durP2;ratioP2;P2;SDS_P1;SDS_P2;PMS_P1;PMS_P2;Temp;Humidity;BMP_temperature;BMP_pressure;BME280_temperature;BME280_humidity;BME280_pressure;Samples;Min_cycle;Max_cycle;Signal;HPM_P1;HPM_P2
2023/03/02 00:01:57;;;;;;;;;16.40;14.80;;;;;7.21;50.93;99660.00;4948176;28;8894;-76
2023/03/02 00:04:30;;;;;;;;;11.60;7.80;;;;;7.31;50.86;99658.22;4947896;28;8850;-76
2023/03/02 00:07:04;;;;;;;;;15.80;13.60;;;;;7.14;51.18;99655.69;4932008;28;9026;-76
2023/03/02 00:09:32;;;;;;;;;12.80;11.80;;;;;7.20;50.87;99653.03;4947455;28;8847;-75
2023/03/02 00:12:01;;;;;;;;;16.00;14.60;;;;;7.19;51.14;99648.69;4931667;28;8866;-76
2023/03/02 00:14:32;;;;;;;;;12.00;12.00;;;;;7.33;50.38;99645.13;4940814;28;8990;-75
2023/03/02 00:17:01;;;;;;;;;14.60;14.40;;;;;7.33;51.08;99642.53;4950914;28;8857;-76
2023/03/02 00:19:30;;;;;;;;;12.00;12.00;;;;;7.39;50.55;99647.69;4989276;28;8904;-74
2023/03/02 00:21:59;;;;;;;;;11.60;11.60;;;;;7.36;49.98;99642.47;4986304;28;8864;-74
2023/03/02 00:24:28;;;;;;;;;17.00;13.60;;;;;7.08;50.69;99648.75;4995559;28;8874;-76
2023/03/02 00:26:57;;;;;;;;;14.00;13.20;;;;;7.25;50.31;99645.19;4989495;28;8870;-76
2023/03/02 00:29:25;;;;;;;;;11.40;11.00;;;;;7.40;51.50;99647.69;5028776;28;8924;-77
2023/03/02 00:31:56;;;;;;;;;16.80;15.80;;;;;7.27;50.96;99640.81;5045247;28;8853;-76
2023/03/02 00:34:25;;;;;;;;;12.40;12.00;;;;;7.25;50.29;99648.66;5028232;28;8885;-76
2023/03/02 00:36:53;;;;;;;;;11.80;11.80;;;;;7.28;50.93;99648.63;5045527;28;8850;-79
2023/03/02 00:39:22;;;;;;;;;14.80;13.40;;;;;7.26;49.92;99646.91;5028597;28;8882;-75
2023/03/02 00:41:51;;;;;;;;;16.00;15.00;;;;;7.19;51.00;99634.72;5045043;28;9649;-75
2023/03/02 00:44:21;;;;;;;;;13.40;12.00;;;;;6.88;51.07;99638.34;5028348;28;8870;-75
2023/03/02 00:46:50;;;;;;;;;10.40;9.20;;;;;6.93;51.62;99642.69;4979996;28;8870;-77
2023/03/02 00:49:20;;;;;;;;;15.60;15.00;;;;;7.08;52.37;99640.91;5026744;28;8992;-75
2023/03/02 00:51:49;;;;;;;;;17.80;14.40;;;;;6.97;52.34;99632.25;5028170;28;8854;-78
2023/03/02 00:54:17;;;;;;;;;14.80;12.80;;;;;6.96;51.85;99627.88;5058529;28;8871;-75
2023/03/02 00:56:46;;;;;;;;;15.60;15.20;;;;;6.63;52.63;99628.88;5043336;28;8867;-77
2023/03/02 00:59:29;;;;;;;;;18.20;16.60;;;;;6.70;52.88;99639.31;5043033;28;8867;-80
2023/03/02 01:02:11;;;;;;;;;18.60;15.60;;;;;6.39;53.51;99633.28;5026280;28;8894;-78
2023/03/02 01:04:43;;;;;;;;;15.20;15.00;;;;;6.50;53.82;99628.03;5060087;28;8902;-76
2023/03/02 01:07:14;;;;;;;;;17.40;15.20;;;;;6.70;53.10;99628.84;5060423;28;8873;-76
2023/03/02 01:09:44;;;;;;;;;21.80;20.40;;;;;6.71;52.42;99616.66;5045712;28;8861;-79
2023/03/02 01:12:14;;;;;;;;;15.00;14.80;;;;;6.70;52.49;99618.41;5044668;28;8868;-75
2023/03/02 01:14:45;;;;;;;;;18.60;18.60;;;;;6.71;53.21;99611.41;5028503;28;8967;-77
2023/03/02 01:17:15;;;;;;;;;22.00;18.60;;;;;6.45;53.09;99621.97;5028647;28;8888;-76
2023/03/02 01:19:45;;;;;;;;;17.80;15.20;;;;;6.65;53.46;99616.69;5029222;28;8862;-78
2023/03/02 01:22:14;;;;;;;;;10.60;10.40;;;;;6.70;52.74;99620.13;5029175;28;8862;-75
2023/03/02 01:24:43;;;;;;;;;15.60;14.20;;;;;6.78;52.51;99622.72;5026914;28;8850;-76
2023/03/02 01:27:12;;;;;;;;;13.60;12.80;;;;;6.86;52.43;99616.56;5004857;28;8859;-77
2023/03/02 01:29:41;;;;;;;;;18.40;16.00;;;;;6.66;52.95;99616.69;5022196;28;8971;-76
2023/03/02 01:32:10;;;;;;;;;24.20;20.20;;;;;6.74;52.66;99620.97;5005365;28;8858;-77
2023/03/02 01:34:39;;;;;;;;;16.60;15.00;;;;;6.96;52.00;99611.34;5006037;28;8854;-77
2023/03/02 01:37:09;;;;;;;;;16.80;16.20;;;;;7.01;52.65;99601.75;4989369;28;8900;-77
2023/03/02 01:39:38;;;;;;;;;16.60;15.60;;;;;6.96;51.42;99601.75;4992397;28;8945;-75
2023/03/02 01:42:07;;;;;;;;;10.00;9.00;;;;;6.80;52.17;99598.31;5003941;28;8846;-77
2023/03/02 01:44:42;;;;;;;;;15.80;15.20;;;;;6.75;53.15;99604.44;4988851;28;8862;-75
2023/03/02 01:47:19;;;;;;;;;17.60;15.00;;;;;6.68;53.13;99606.19;5037541;28;10068;-77
2023/03/02 01:50:00;;;;;;;;;16.20;16.20;;;;;6.66;52.73;99598.41;4995534;28;8993;-77
2023/03/02 01:52:37;;;;;;;;;22.60;21.00;;;;;6.84;52.47;99601.78;5024399;28;9983;-76
2023/03/02 01:55:11;;;;;;;;;17.00;15.20;;;;;6.57;52.96;99601.03;5008066;28;9050;-77
2023/03/02 01:57:46;;;;;;;;;13.40;13.20;;;;;6.51;53.32;99603.66;5039105;28;9619;-78
2023/03/02 02:00:20;;;;;;;;;21.40;19.60;;;;;6.56;53.29;99608.88;5036541;28;8896;-74
2023/03/02 02:02:51;;;;;;;;;20.20;20.20;;;;;6.53;53.05;99609.75;5049612;28;8860;-76
2023/03/02 02:05:25;;;;;;;;;21.20;19.60;;;;;6.69;52.96;99611.41;5050061;28;8856;-76
2023/03/02 02:07:56;;;;;;;;;17.20;15.20;;;;;6.56;53.46;99614.97;5066470;28;9614;-76
2023/03/02 02:10:25;;;;;;;;;22.60;19.40;;;;;6.44;52.89;99609.78;5066331;28;9785;-77
2023/03/02 02:12:54;;;;;;;;;19.40;16.40;;;;;6.46;53.14;99608.91;5049256;28;8844;-76
2023/03/02 02:15:23;;;;;;;;;18.20;15.00;;;;;6.56;53.35;99612.34;5049272;28;8972;-76
2023/03/02 02:17:53;;;;;;;;;21.80;19.40;;;;;6.55;53.51;99594.97;5031776;28;8941;-77
2023/03/02 02:20:30;;;;;;;;;22.00;19.00;;;;;6.59;53.77;99603.66;5045874;28;8890;-76
2023/03/02 02:23:11;;;;;;;;;17.40;17.00;;;;;6.82;53.07;99583.50;5062071;28;8864;-75
2023/03/02 02:25:48;;;;;;;;;19.00;18.40;;;;;6.57;53.08;99594.94;5029476;28;8867;-74
2023/03/02 02:28:22;;;;;;;;;15.80;14.80;;;;;6.47;53.95;99591.47;4995442;28;8875;-76
2023/03/02 02:30:58;;;;;;;;;23.20;21.20;;;;;6.45;53.61;99588.88;5031403;28;9638;-76
2023/03/02 02:33:29;;;;;;;;;16.60;14.60;;;;;6.48;53.43;99588.00;5053732;28;8854;-77
2023/03/02 02:36:04;;;;;;;;;15.80;14.60;;;;;6.67;52.76;99581.81;5065457;28;8865;-78
2023/03/02 02:38:34;;;;;;;;;19.80;13.80;;;;;6.38;54.08;99579.34;5045445;28;8840;-76
2023/03/02 02:41:07;;;;;;;;;18.40;16.40;;;;;6.60;54.02;99582.72;5062270;28;8883;-78
2023/03/02 02:43:37;;;;;;;;;18.40;17.20;;;;;6.60;53.02;99584.47;5022577;28;8870;-75
2023/03/02 02:46:06;;;;;;;;;17.80;17.40;;;;;6.70;53.11;99581.81;5062001;28;8866;-76
2023/03/02 02:48:36;;;;;;;;;16.20;14.80;;;;;6.72;53.03;99579.22;5046448;28;8829;-75
2023/03/02 02:51:08;;;;;;;;;18.40;17.00;;;;;6.87;52.31;99581.75;5048343;28;8864;-75
2023/03/02 02:53:43;;;;;;;;;21.40;19.60;;;;;6.94;52.47;99571.28;5061664;28;8840;-75
2023/03/02 02:56:14;;;;;;;;;14.40;14.00;;;;;6.56;53.10;99582.75;5063479;28;8959;-75
2023/03/02 02:58:50;;;;;;;;;13.80;13.80;;;;;6.36;54.25;99573.25;5030421;28;8841;-75
2023/03/02 03:01:24;;;;;;;;;12.00;11.00;;;;;6.42;53.41;99575.84;5053248;28;9595;-75
2023/03/02 03:03:56;;;;;;;;;17.80;16.60;;;;;6.28;54.14;99578.47;5060291;28;8856;-75
2023/03/02 03:06:29;;;;;;;;;15.00;15.00;;;;;6.30;54.05;99578.47;5048422;28;8853;-75
2023/03/02 03:09:00;;;;;;;;;18.40;16.00;;;;;6.29;54.13;99584.59;5006754;28;8862;-76
2023/03/02 03:11:40;;;;;;;;;15.80;15.00;;;;;6.39;53.99;99581.06;5003165;28;8901;-76
2023/03/02 03:14:14;;;;;;;;;15.60;15.40;;;;;6.52;54.13;99580.16;5002834;28;8849;-75
2023/03/02 03:16:47;;;;;;;;;14.00;13.00;;;;;6.58;53.16;99581.88;5005294;28;9004;-76
2023/03/02 03:19:19;;;;;;;;;17.20;16.00;;;;;6.51;53.90;99577.53;5006159;28;8920;-75
2023/03/02 03:21:50;;;;;;;;;15.20;14.60;;;;;6.65;53.23;99577.50;5005791;28;8858;-76
2023/03/02 03:24:21;;;;;;;;;17.40;15.80;;;;;6.52;52.98;99580.16;5005501;28;8854;-76
2023/03/02 03:26:50;;;;;;;;;11.20;10.60;;;;;6.52;53.09;99582.75;5002548;28;8920;-77
2023/03/02 03:29:23;;;;;;;;;14.60;14.60;;;;;6.55;53.28;99576.66;5004926;28;8881;-76
2023/03/02 03:31:56;;;;;;;;;17.20;15.80;;;;;6.44;54.24;99583.69;5003033;28;8861;-77
2023/03/02 03:34:26;;;;;;;;;15.40;14.40;;;;;6.58;53.73;99573.16;4972904;28;9655;-77
2023/03/02 03:37:00;;;;;;;;;16.40;15.20;;;;;6.42;54.25;99575.84;5004540;28;9637;-76
2023/03/02 03:39:34;;;;;;;;;15.60;13.40;;;;;6.52;54.22;99572.31;5037416;28;8903;-76
2023/03/02 03:42:05;;;;;;;;;15.80;14.80;;;;;6.47;54.18;99573.19;5046006;28;8891;-78
2023/03/02 03:44:36;;;;;;;;;17.80;16.80;;;;;6.62;53.76;99567.06;5013512;28;8848;-78
2023/03/02 03:47:05;;;;;;;;;14.80;13.80;;;;;6.44;53.83;99574.09;5029487;28;8848;-76
2023/03/02 03:49:34;;;;;;;;;14.40;14.40;;;;;6.48;53.67;99575.81;5029010;28;8860;-74
2023/03/02 03:52:03;;;;;;;;;12.20;11.20;;;;;6.37;54.23;99580.22;5062332;28;8950;-76
2023/03/02 03:54:33;;;;;;;;;14.80;13.20;;;;;6.55;53.91;99578.41;5025698;28;8873;-75
2023/03/02 03:57:01;;;;;;;;;10.40;10.40;;;;;6.69;53.37;99576.59;5045900;28;8868;-76
2023/03/02 03:59:30;;;;;;;;;15.00;15.00;;;;;6.75;53.13;99579.19;5029342;28;8839;-76
2023/03/02 04:02:03;;;;;;;;;16.60;12.60;;;;;6.59;54.03;99581.00;5013233;28;8982;-76
2023/03/02 04:04:37;;;;;;;;;14.00;14.00;;;;;6.60;53.70;99587.09;4996519;28;8893;-75
2023/03/02 04:07:15;;;;;;;;;15.60;13.40;;;;;6.65;54.02;99580.13;5045631;28;8852;-75
2023/03/02 04:09:45;;;;;;;;;12.40;12.20;;;;;6.60;53.68;99587.09;5046788;28;9672;-76
2023/03/02 04:12:15;;;;;;;;;13.60;11.20;;;;;6.60;53.41;99576.63;5060701;28;9046;-75
2023/03/02 04:14:49;;;;;;;;;13.40;10.60;;;;;6.66;53.51;99585.34;5029108;28;8984;-76
2023/03/02 04:17:19;;;;;;;;;17.20;14.20;;;;;6.86;52.94;99579.13;5012432;28;8851;-75
2023/03/02 04:19:50;;;;;;;;;9.80;9.80;;;;;6.87;53.25;99575.63;5027464;28;8903;-76
2023/03/02 04:22:19;;;;;;;;;10.40;9.60;;;;;6.99;52.24;99574.75;5061960;28;8877;-75
2023/03/02 04:24:49;;;;;;;;;11.00;10.40;;;;;7.09;51.85;99574.66;4994444;28;8857;-75
2023/03/02 04:27:19;;;;;;;;;10.80;8.60;;;;;6.82;53.46;99573.06;5047919;28;8859;-77
2023/03/02 04:29:48;;;;;;;;;8.60;8.60;;;;;7.04;52.68;99570.34;5026309;28;8863;-74
2023/03/02 04:32:17;;;;;;;;;26.00;25.40;;;;;6.97;53.13;99566.91;5028058;28;8867;-76
2023/03/02 04:34:52;;;;;;;;;14.20;13.40;;;;;6.97;52.21;99560.81;5026892;28;8936;-75
2023/03/02 04:37:22;;;;;;;;;9.80;8.00;;;;;6.54;53.93;99567.09;5072229;28;8861;-76
2023/03/02 04:39:52;;;;;;;;;14.20;11.20;;;;;6.54;54.14;99574.94;5046319;28;8868;-76
2023/03/02 04:42:21;;;;;;;;;12.20;12.00;;;;;6.73;54.40;99575.72;5027723;28;8880;-74
2023/03/02 04:44:50;;;;;;;;;10.80;9.80;;;;;6.66;54.48;99574.88;5043195;28;8884;-75
2023/03/02 04:47:18;;;;;;;;;10.80;10.80;;;;;6.66;54.33;99568.78;5052970;28;8867;-76
2023/03/02 04:49:49;;;;;;;;;12.60;11.20;;;;;6.69;54.52;99572.25;5027739;28;8871;-77
2023/03/02 04:52:19;;;;;;;;;12.60;10.60;;;;;6.56;54.10;99573.16;5027534;28;8883;-77
2023/03/02 04:54:48;;;;;;;;;16.00;14.20;;;;;6.51;54.38;99569.69;5042866;28;8940;-76
2023/03/02 04:57:16;;;;;;;;;11.20;9.60;;;;;6.49;54.45;99568.84;5026465;28;8851;-75
2023/03/02 04:59:45;;;;;;;;;20.20;14.40;;;;;6.48;54.70;99572.34;5050333;28;8986;-76
2023/03/02 05:02:14;;;;;;;;;8.80;8.40;;;;;6.31;54.51;99577.63;5027963;28;8864;-77
2023/03/02 05:04:43;;;;;;;;;10.60;9.20;;;;;6.54;54.22;99580.16;5043589;28;8863;-75
2023/03/02 05:07:11;;;;;;;;;5.00;2.40;;;;;6.55;54.64;99584.50;5045967;28;9453;-73
2023/03/02 05:09:42;;;;;;;;;14.00;14.00;;;;;6.54;54.54;99587.13;5061260;28;8841;-75
2023/03/02 05:12:11;;;;;;;;;26.20;18.80;;;;;6.62;54.38;99587.94;5028002;28;8879;-76
2023/03/02 05:14:39;;;;;;;;;30.60;27.20;;;;;6.66;54.02;99587.94;5042466;28;8883;-77
2023/03/02 05:17:08;;;;;;;;;30.00;25.00;;;;;6.69;54.34;99587.91;5078131;28;8926;-75
2023/03/02 05:19:37;;;;;;;;;13.40;13.40;;;;;6.80;53.87;99584.41;5045382;28;8860;-76
2023/03/02 05:22:06;;;;;;;;;14.60;13.40;;;;;6.80;52.93;99585.25;5060648;28;9690;-75
2023/03/02 05:24:36;;;;;;;;;15.40;11.40;;;;;6.85;53.35;99580.00;5044624;28;8864;-76
2023/03/02 05:27:06;;;;;;;;;11.60;11.60;;;;;6.86;52.92;99581.75;5042970;28;8865;-74
2023/03/02 05:29:35;;;;;;;;;11.80;10.20;;;;;6.91;53.19;99590.47;5041278;28;8909;-77
2023/03/02 05:32:03;;;;;;;;;15.40;14.60;;;;;6.91;52.95;99585.25;5031174;28;8865;-78
2023/03/02 05:34:33;;;;;;;;;14.20;12.80;;;;;6.90;52.92;99592.19;5045774;28;9590;-76
2023/03/02 05:37:01;;;;;;;;;50.00;41.50;;;;;6.89;53.59;99587.88;5049809;28;8946;-76
2023/03/02 05:39:30;;;;;;;;;40.20;36.40;;;;;6.99;52.72;99593.03;5049441;28;8837;-75
2023/03/02 05:41:59;;;;;;;;;20.20;16.40;;;;;7.01;53.63;99594.75;5076163;28;8902;-77
2023/03/02 05:44:29;;;;;;;;;13.60;12.00;;;;;7.02;52.12;99601.75;5063857;28;9666;-79
2023/03/02 05:46:58;;;;;;;;;9.60;7.00;;;;;7.02;52.35;99595.63;5028382;28;8883;-75
2023/03/02 05:49:27;;;;;;;;;17.20;12.80;;;;;6.97;53.17;99598.28;5049192;28;8903;-78
2023/03/02 05:51:56;;;;;;;;;13.80;12.80;;;;;7.04;52.58;99599.97;5049318;28;8958;-77
2023/03/02 05:54:25;;;;;;;;;12.40;12.20;;;;;7.06;52.41;99600.84;5050449;28;8841;-76
2023/03/02 05:56:53;;;;;;;;;11.00;11.00;;;;;7.16;52.40;99603.41;5050222;28;8930;-76
2023/03/02 05:59:22;;;;;;;;;12.40;12.40;;;;;7.26;51.75;99603.31;5048428;28;8939;-76
2023/03/02 06:01:57;;;;;;;;;15.00;10.40;;;;;7.33;51.77;99598.06;5048459;28;8889;-76
2023/03/02 06:04:26;;;;;;;;;14.40;11.40;;;;;7.23;52.42;99610.31;5045999;28;8849;-76
2023/03/02 06:06:55;;;;;;;;;14.00;11.00;;;;;7.34;51.76;99603.25;5046372;28;8962;-79
2023/03/02 06:09:24;;;;;;;;;11.80;11.00;;;;;7.27;51.34;99605.06;5049167;28;8868;-79
2023/03/02 06:11:54;;;;;;;;;10.60;10.60;;;;;7.35;51.42;99602.41;5050333;28;8860;-78
2023/03/02 06:14:23;;;;;;;;;17.60;13.60;;;;;7.28;51.38;99603.31;5050404;28;8875;-77
2023/03/02 06:16:52;;;;;;;;;9.40;9.40;;;;;7.36;51.29;99606.75;5065620;28;8853;-75
2023/03/02 06:19:22;;;;;;;;;12.00;10.40;;;;;7.17;52.06;99600.75;5048990;28;8852;-75
2023/03/02 06:21:51;;;;;;;;;11.20;11.20;;;;;7.15;51.70;99607.75;5065768;28;8873;-76
2023/03/02 06:24:20;;;;;;;;;11.00;10.20;;;;;6.94;52.15;99605.25;5047422;28;8860;-76
2023/03/02 06:26:49;;;;;;;;;7.80;7.60;;;;;7.04;52.49;99606.94;5065376;28;8879;-76
2023/03/02 06:29:18;;;;;;;;;8.60;6.80;;;;;6.95;52.37;99601.78;5050287;28;8856;-77
2023/03/02 06:31:46;;;;;;;;;13.20;10.00;;;;;6.98;51.70;99599.13;5067114;28;9574;-76
2023/03/02 06:34:17;;;;;;;;;10.20;10.00;;;;;6.86;52.01;99608.75;5027458;28;9054;-75
2023/03/02 06:36:45;;;;;;;;;10.20;9.60;;;;;6.91;53.04;99606.16;5029523;28;9002;-75
2023/03/02 06:39:15;;;;;;;;;12.80;10.40;;;;;6.97;52.21;99605.25;5070515;28;8868;-76
2023/03/02 06:41:44;;;;;;;;;10.40;8.00;;;;;7.01;52.50;99609.59;5048467;28;8837;-76
2023/03/02 06:44:16;;;;;;;;;10.60;10.60;;;;;7.09;52.88;99611.25;5049293;28;8860;-78
2023/03/02 06:46:45;;;;;;;;;12.40;10.40;;;;;7.13;52.74;99614.72;5047284;28;8875;-74
2023/03/02 06:49:14;;;;;;;;;13.20;9.20;;;;;7.27;52.17;99617.28;5049278;28;8840;-76
2023/03/02 06:51:44;;;;;;;;;11.20;11.20;;;;;7.17;52.87;99626.03;5048751;28;8880;-76
2023/03/02 06:54:12;;;;;;;;;10.20;10.20;;;;;7.13;51.80;99617.34;5013575;28;8857;-74
2023/03/02 06:56:41;;;;;;;;;13.20;11.80;;;;;7.07;52.90;99620.84;5048782;28;9011;-77
2023/03/02 06:59:10;;;;;;;;;9.40;9.40;;;;;7.14;53.20;99616.47;5046167;28;8952;-76
2023/03/02 07:01:39;;;;;;;;;11.40;11.40;;;;;7.08;53.11;99620.00;5045640;28;8865;-75
2023/03/02 07:04:08;;;;;;;;;7.80;7.80;;;;;7.25;53.02;99614.66;5046285;28;8877;-78
2023/03/02 07:06:36;;;;;;;;;7.20;6.80;;;;;7.19;53.50;99619.94;5020255;28;8844;-77
2023/03/02 07:09:07;;;;;;;;;10.00;10.00;;;;;7.22;52.82;99629.50;5043299;28;8858;-81
2023/03/02 07:11:36;;;;;;;;;13.40;11.60;;;;;7.33;53.03;99624.22;5043018;28;8860;-76
2023/03/02 07:14:05;;;;;;;;;11.20;10.60;;;;;7.38;54.26;99631.16;5041044;28;9699;-78
2023/03/02 07:16:34;;;;;;;;;10.00;10.00;;;;;7.54;53.72;99624.06;4995144;28;8877;-74
2023/03/02 07:19:03;;;;;;;;;10.60;9.60;;;;;7.35;53.57;99631.16;5045704;28;8858;-75
2023/03/02 07:21:32;;;;;;;;;11.00;11.00;;;;;7.43;52.69;99629.34;5044411;28;8865;-77
2023/03/02 07:24:01;;;;;;;;;11.00;10.60;;;;;7.52;53.16;99632.81;5045185;28;8857;-75
2023/03/02 07:26:31;;;;;;;;;12.20;10.40;;;;;7.52;53.12;99630.19;5045656;28;8862;-74
2023/03/02 07:29:01;;;;;;;;;11.20;9.80;;;;;7.59;52.37;99631.84;5046653;28;8996;-77
2023/03/02 07:31:30;;;;;;;;;11.00;11.00;;;;;7.27;53.68;99627.75;5045317;28;8889;-76
2023/03/02 07:34:00;;;;;;;;;10.20;10.00;;;;;7.07;54.64;99636.53;5013183;28;8874;-74
2023/03/02 07:36:29;;;;;;;;;10.00;10.00;;;;;7.17;54.04;99631.25;5046514;28;8854;-76
2023/03/02 07:38:58;;;;;;;;;10.00;10.00;;;;;7.03;54.30;99641.81;5025923;28;9605;-76
2023/03/02 07:41:27;;;;;;;;;11.00;11.00;;;;;7.07;54.35;99635.69;5029247;28;8871;-76
2023/03/02 07:43:57;;;;;;;;;11.20;11.00;;;;;7.02;55.19;99632.22;5046433;28;9618;-76
2023/03/02 07:46:26;;;;;;;;;9.00;8.80;;;;;7.21;54.07;99627.75;5048565;28;8880;-74
2023/03/02 07:48:57;;;;;;;;;9.60;8.20;;;;;7.02;55.08;99630.50;5035177;28;8829;-76
2023/03/02 07:51:26;;;;;;;;;13.80;10.40;;;;;7.06;54.94;99629.59;5013054;28;8861;-76
2023/03/02 07:53:55;;;;;;;;;10.60;10.60;;;;;7.21;54.46;99625.13;5047889;28;8876;-77
2023/03/02 07:56:24;;;;;;;;;11.60;10.60;;;;;7.37;54.40;99634.63;5048164;28;8853;-76
2023/03/02 07:58:53;;;;;;;;;10.00;8.80;;;;;7.26;54.75;99636.44;5046826;28;8959;-75
2023/03/02 08:01:23;;;;;;;;;10.80;10.60;;;;;7.34;54.40;99634.63;5012779;28;8868;-73
2023/03/02 08:03:52;;;;;;;;;11.00;11.00;;;;;7.34;54.60;99636.41;5044153;28;9636;-76
2023/03/02 08:06:21;;;;;;;;;6.20;5.60;;;;;7.29;54.09;99633.81;4996262;28;8877;-75
2023/03/02 08:08:50;;;;;;;;;15.60;11.00;;;;;7.23;54.59;99628.59;5047542;28;8871;-75
2023/03/02 08:11:19;;;;;;;;;11.80;11.00;;;;;7.26;54.72;99631.22;5048074;28;8853;-74
2023/03/02 08:13:48;;;;;;;;;16.60;12.60;;;;;7.19;55.24;99632.13;5048189;28;8848;-76
2023/03/02 08:16:16;;;;;;;;;11.00;11.00;;;;;7.15;55.25;99627.78;5048051;28;9598;-75
2023/03/02 08:18:47;;;;;;;;;16.80;15.00;;;;;7.09;55.85;99626.94;5042868;28;8859;-75
2023/03/02 08:21:19;;;;;;;;;15.80;15.60;;;;;7.08;56.03;99627.84;5040425;28;9597;-76
2023/03/02 08:23:48;;;;;;;;;20.00;15.40;;;;;7.24;54.77;99625.13;5035005;28;8869;-75
2023/03/02 08:26:18;;;;;;;;;14.40;12.60;;;;;7.26;55.36;99625.97;5012649;28;8898;-80
2023/03/02 08:28:47;;;;;;;;;15.40;13.40;;;;;7.25;55.87;99621.66;5047006;28;8950;-75
2023/03/02 08:31:16;;;;;;;;;17.80;16.00;;;;;7.22;55.94;99630.34;5046518;28;8976;-77
2023/03/02 08:33:47;;;;;;;;;17.00;15.60;;;;;7.14;56.27;99626.06;5011758;28;8913;-75
2023/03/02 08:36:17;;;;;;;;;16.60;13.80;;;;;7.20;56.24;99626.88;5027748;28;8984;-78
2023/03/02 08:38:48;;;;;;;;;15.40;13.20;;;;;7.16;56.23;99630.41;5044000;28;8845;-75
2023/03/02 08:41:19;;;;;;;;;15.40;13.00;;;;;7.00;57.36;99628.75;5046581;28;9008;-74
2023/03/02 08:43:48;;;;;;;;;16.80;13.80;;;;;7.00;57.11;99639.19;5078781;28;8914;-74
2023/03/02 08:46:18;;;;;;;;;13.00;13.00;;;;;6.87;56.98;99623.56;5079284;28;8873;-75
2023/03/02 08:48:50;;;;;;;;;15.20;9.60;;;;;6.87;57.28;99627.88;5045384;28;8810;-77
2023/03/02 08:51:20;;;;;;;;;10.80;8.00;;;;;6.94;56.82;99629.63;5062035;28;8853;-78
2023/03/02 08:53:53;;;;;;;;;11.00;10.40;;;;;6.88;57.26;99624.41;5058140;28;8879;-76
2023/03/02 08:56:25;;;;;;;;;13.20;10.00;;;;;6.62;58.44;99634.97;5041987;28;8890;-77
2023/03/02 08:58:55;;;;;;;;;10.60;10.60;;;;;6.63;58.62;99631.50;5028132;28;8825;-76
2023/03/02 09:01:25;;;;;;;;;12.80;12.40;;;;;6.14;60.27;99632.47;5028207;28;8845;-74
2023/03/02 09:03:56;;;;;;;;;14.40;12.00;;;;;6.50;59.20;99628.91;5030852;28;8847;-75
2023/03/02 09:06:25;;;;;;;;;7.80;7.00;;;;;6.35;60.06;99633.31;5044135;28;8841;-76
2023/03/02 09:08:55;;;;;;;;;7.20;7.20;;;;;6.28;59.98;99629.81;5044068;28;8878;-76
2023/03/02 09:11:24;;;;;;;;;10.00;10.00;;;;;6.45;59.20;99625.44;5045410;28;9607;-77
2023/03/02 09:13:55;;;;;;;;;10.40;7.00;;;;;6.16;60.18;99640.31;5037316;28;8857;-76
2023/03/02 09:16:24;;;;;;;;;10.20;10.00;;;;;6.22;59.91;99638.53;5016118;28;8854;-77
2023/03/02 09:18:54;;;;;;;;;10.00;9.80;;;;;6.02;60.84;99627.25;5015835;28;8858;-74
2023/03/02 09:21:25;;;;;;;;;8.60;7.00;;;;;6.17;60.06;99629.88;5047611;28;8854;-74
2023/03/02 09:23:56;;;;;;;;;9.40;9.00;;;;;6.18;60.23;99631.59;5048338;28;8847;-76
2023/03/02 09:26:26;;;;;;;;;14.80;12.60;;;;;6.21;60.66;99638.53;5031556;28;8851;-75
2023/03/02 09:28:55;;;;;;;;;16.80;16.00;;;;;6.24;60.29;99631.56;5057939;28;8877;-74
2023/03/02 09:31:24;;;;;;;;;18.40;16.00;;;;;6.17;60.55;99632.47;5048384;28;8959;-75
2023/03/02 09:33:57;;;;;;;;;25.40;23.40;;;;;6.35;59.82;99631.56;5048115;28;8885;-76
2023/03/02 09:36:30;;;;;;;;;25.60;21.20;;;;;6.46;59.74;99642.84;5063046;28;8922;-77
2023/03/02 09:38:59;;;;;;;;;19.20;18.40;;;;;6.58;59.00;99633.25;5055802;28;8936;-79
2023/03/02 09:41:52;;;;;;;;;26.40;22.00;;;;;6.73;59.10;99635.78;5032458;28;9652;-79
2023/03/02 09:44:42;;;;;;;;;29.60;27.60;;;;;6.79;59.46;99640.13;5063335;28;8976;-75
2023/03/02 09:47:19;;;;;;;;;29.80;24.60;;;;;6.81;59.83;99634.00;5031348;28;9016;-75
2023/03/02 09:50:25;;;;;;;;;26.60;23.80;;;;;6.85;58.03;99632.25;5045789;28;8909;-75
2023/03/02 09:53:15;;;;;;;;;20.80;15.80;;;;;6.89;57.71;99624.44;5014853;28;8874;-78
2023/03/02 09:55:47;;;;;;;;;22.80;20.80;;;;;6.81;58.75;99638.38;5030210;28;8818;-76
2023/03/02 09:58:19;;;;;;;;;19.40;19.20;;;;;6.64;59.48;99633.22;5047355;28;8850;-76
2023/03/02 10:00:51;;;;;;;;;26.80;21.60;;;;;6.56;59.22;99638.47;5037996;28;8861;-77
2023/03/02 10:03:23;;;;;;;;;25.80;24.80;;;;;6.65;59.35;99632.34;5064386;28;8923;-77
2023/03/02 10:05:53;;;;;;;;;24.80;21.40;;;;;6.87;58.90;99633.13;5042312;28;8854;-78
2023/03/02 10:08:25;;;;;;;;;22.20;21.00;;;;;6.96;58.28;99629.63;5047399;28;8898;-77
2023/03/02 10:11:05;;;;;;;;;24.80;21.80;;;;;7.02;58.46;99626.97;5035407;28;9503;-78
2023/03/02 10:13:42;;;;;;;;;26.60;23.60;;;;;6.95;58.66;99622.69;5048241;28;8845;-78
2023/03/02 10:16:23;;;;;;;;;29.20;26.00;;;;;7.03;58.32;99620.91;5031940;28;8837;-78
2023/03/02 10:19:02;;;;;;;;;28.00;25.20;;;;;7.11;57.99;99621.72;5042580;28;8902;-80
2023/03/02 10:21:39;;;;;;;;;31.20;24.40;;;;;6.86;59.06;99629.63;5075713;28;8857;-80
2023/03/02 10:24:21;;;;;;;;;35.60;26.60;;;;;6.76;58.29;99621.84;5056532;28;9622;-78
2023/03/02 10:26:54;;;;;;;;;28.40;25.20;;;;;7.10;57.68;99625.22;5063411;28;8856;-78
2023/03/02 10:29:42;;;;;;;;;25.00;22.20;;;;;6.90;58.78;99626.16;5011208;28;8942;-77
2023/03/02 10:32:19;;;;;;;;;25.40;21.80;;;;;7.18;57.58;99617.31;5024799;28;8866;-78
2023/03/02 10:34:49;;;;;;;;;24.20;21.00;;;;;7.22;56.78;99619.91;5006996;28;8874;-78
2023/03/02 10:37:21;;;;;;;;;24.60;23.00;;;;;7.19;56.29;99619.06;5008995;28;8854;-79
2023/03/02 10:39:52;;;;;;;;;21.00;21.00;;;;;7.28;56.26;99616.38;5009613;28;8869;-79
2023/03/02 10:42:26;;;;;;;;;23.20;21.40;;;;;7.26;56.84;99620.75;4992565;28;8882;-80
2023/03/02 10:44:57;;;;;;;;;21.40;21.20;;;;;7.18;56.09;99614.72;4991856;28;8885;-77
2023/03/02 10:47:28;;;;;;;;;23.20;21.20;;;;;7.21;56.02;99617.28;5026045;28;8859;-78
2023/03/02 10:49:58;;;;;;;;;24.80;21.60;;;;;7.18;55.95;99619.94;5042584;28;9060;-79
2023/03/02 10:52:28;;;;;;;;;21.60;19.60;;;;;7.10;56.15;99614.75;5018076;28;8873;-80
2023/03/02 10:55:10;;;;;;;;;22.40;19.20;;;;;7.50;55.44;99609.28;4995229;28;8874;-79
2023/03/02 10:57:40;;;;;;;;;22.40;21.00;;;;;7.39;55.61;99616.31;5009125;28;8874;-77
2023/03/02 11:00:18;;;;;;;;;18.80;17.40;;;;;7.73;55.05;99619.53;5010028;28;8920;-78
2023/03/02 11:02:52;;;;;;;;;22.20;19.80;;;;;7.81;54.71;99612.50;5010746;28;8878;-80
2023/03/02 11:05:29;;;;;;;;;21.40;19.00;;;;;7.69;53.38;99607.38;5011322;28;8985;-79
2023/03/02 11:08:00;;;;;;;;;25.60;21.00;;;;;7.70;53.67;99606.47;5008639;28;8865;-80
2023/03/02 11:10:33;;;;;;;;;24.80;23.20;;;;;7.77;53.97;99607.31;5009604;28;8961;-77
2023/03/02 11:13:06;;;;;;;;;15.60;15.20;;;;;7.53;53.92;99603.13;5010186;28;8965;-78
2023/03/02 11:15:41;;;;;;;;;18.00;17.80;;;;;7.74;53.19;99605.59;5009718;28;8877;-80
2023/03/02 11:18:24;;;;;;;;;24.20;20.20;;;;;8.03;52.31;99601.84;4995214;28;8885;-79
2023/03/02 11:20:59;;;;;;;;;17.20;16.60;;;;;7.94;51.88;99600.16;5025165;28;8973;-83
2023/03/02 11:23:36;;;;;;;;;20.20;19.40;;;;;7.78;52.88;99603.78;5021832;28;8903;-79
2023/03/02 11:26:15;;;;;;;;;18.40;16.80;;;;;7.77;52.40;99610.78;5001072;28;8881;-80
2023/03/02 11:28:51;;;;;;;;;22.00;19.60;;;;;7.54;52.33;99603.13;4990710;28;8874;-79
2023/03/02 11:31:29;;;;;;;;;17.00;16.40;;;;;7.53;53.05;99608.38;4990346;28;8888;-78
2023/03/02 11:34:24;;;;;;;;;18.20;17.00;;;;;7.43;53.41;99612.81;4989245;28;8896;-79
2023/03/02 11:37:02;;;;;;;;;18.00;17.40;;;;;7.50;52.85;99608.41;4975399;28;8907;-81
2023/03/02 11:39:41;;;;;;;;;17.20;14.80;;;;;7.80;53.20;99604.69;4986964;28;8867;-80
2023/03/02 11:42:29;;;;;;;;;18.80;16.00;;;;;7.89;52.75;99601.94;4989277;28;9622;-77
2023/03/02 11:45:03;;;;;;;;;19.00;14.80;;;;;7.96;52.51;99593.16;4990629;28;8850;-81
2023/03/02 11:47:33;;;;;;;;;26.00;20.40;;;;;8.20;51.67;99597.31;5006659;28;8866;-76
2023/03/02 11:50:06;;;;;;;;;19.80;18.60;;;;;8.41;50.63;99592.75;5025613;28;8894;-77
2023/03/02 11:52:41;;;;;;;;;20.80;19.00;;;;;8.49;50.34;99588.28;4993117;28;8902;-77
2023/03/02 11:55:17;;;;;;;;;19.40;18.60;;;;;8.30;50.48;99591.97;5039917;28;8857;-77